Time;durP1;ratioP1;P1;durP2;ratioP2;P2;SDS_P1;SDS_P2;PMS_P1;PMS_P2;Temp;Humidity;BMP_temperature;BMP_pressure;BME280_temperature;BME280_humidity;BME280_pressure;Samples;Min_cycle;Max_cycle;Signal;HPM_P1;HPM_P2
2023/08/17 00:02:15;;;;;;;21.40;19.30;;;563.90;2432.00;;;;;;4955370;29;20041;-83
2023/08/17 00:04:41;;;;;;;23.80;19.73;;;563.90;2432.00;;;;;;4955394;29;20527;-83
2023/08/17 00:07:07;;;;;;;23.85;20.80;;;563.70;2432.00;;;;;;4955486;29;20121;-83
2023/08/17 00:09:33;;;;;;;21.52;19.42;;;563.70;2432.00;;;;;;4955332;29;20110;-83
2023/08/17 00:11:59;;;;;;;22.63;20.33;;;563.60;2432.00;;;;;;4955396;29;20054;-83
2023/08/17 00:14:25;;;;;;;20.75;18.83;;;563.70;2432.00;;;;;;4956725;29;20415;-83
2023/08/17 00:16:51;;;;;;;19.95;17.88;;;563.50;2432.00;;;;;;4955585;29;20038;-83
2023/08/17 00:19:17;;;;;;;18.40;16.60;;;563.50;2432.00;;;;;;4955029;29;20027;-83
2023/08/17 00:21:44;;;;;;;21.23;18.60;;;563.50;2432.00;;;;;;4955182;29;20463;-83
2023/08/17 00:24:10;;;;;;;21.67;18.02;;;563.50;2432.00;;;;;;4956121;28;20031;-83
2023/08/17 00:26:38;;;;;;;21.98;17.27;;;563.50;2432.00;;;;;;4954137;28;20051;-82
2023/08/17 00:29:04;;;;;;;19.80;17.60;;;563.40;2432.00;;;;;;4954877;29;20031;-82
2023/08/17 00:31:30;;;;;;;18.52;16.40;;;563.30;2432.00;;;;;;4955135;29;20031;-83
2023/08/17 00:33:55;;;;;;;18.70;16.80;;;563.50;2432.00;;;;;;4954828;29;20035;-84
2023/08/17 00:36:21;;;;;;;20.10;17.30;;;563.60;2432.00;;;;;;4956088;28;20042;-82
2023/08/17 00:38:47;;;;;;;21.67;19.42;;;563.60;2432.00;;;;;;4954629;29;20027;-82
2023/08/17 00:41:13;;;;;;;20.88;17.52;;;563.60;2432.00;;;;;;4954598;29;20027;-82
2023/08/17 00:43:38;;;;;;;23.65;18.05;;;563.30;2432.00;;;;;;4954942;29;20030;-83
2023/08/17 00:46:05;;;;;;;19.42;17.42;;;563.30;2432.00;;;;;;4954629;29;20031;-82
2023/08/17 00:48:31;;;;;;;20.02;17.83;;;563.50;2432.00;;;;;;4954642;29;20100;-83
2023/08/17 00:50:59;;;;;;;20.98;18.48;;;563.40;2432.00;;;;;;4954316;29;20043;-83
2023/08/17 00:53:27;;;;;;;22.23;19.23;;;563.40;2432.00;;;;;;4954377;29;20416;-83
2023/08/17 00:55:53;;;;;;;17.95;16.25;;;563.20;2432.00;;;;;;4954510;29;20031;-83
2023/08/17 00:58:21;;;;;;;18.05;16.25;;;563.20;2432.00;;;;;;4954492;29;20024;-82
2023/08/17 01:00:47;;;;;;;21.67;17.17;;;563.30;2432.00;;;;;;4954508;29;20122;-83
2023/08/17 01:03:14;;;;;;;19.35;16.48;;;563.40;2432.00;;;;;;4954430;29;20031;-83
2023/08/17 01:05:40;;;;;;;19.15;16.58;;;563.50;2432.00;;;;;;4954324;29;20034;-83
2023/08/17 01:08:06;;;;;;;19.50;17.45;;;563.40;2432.00;;;;;;4953854;29;20031;-83
2023/08/17 01:10:47;;;;;;;19.08;17.00;;;563.20;2432.00;;;;;;4954332;29;20053;-82
2023/08/17 01:13:32;;;;;;;20.55;15.82;;;563.20;2432.00;;;;;;4954302;29;20027;-82
2023/08/17 01:16:02;;;;;;;18.23;16.45;;;563.20;2432.00;;;;;;4954103;29;20035;-82
2023/08/17 01:18:34;;;;;;;19.42;16.17;;;538.50;2406.40;;;;;;4955976;29;20043;-83
2023/08/17 01:21:02;;;;;;;18.92;16.60;;;538.30;2406.40;;;;;;4954336;29;20028;-83
2023/08/17 01:23:28;;;;;;;18.65;16.65;;;538.40;2406.40;;;;;;4953958;29;20117;-82
2023/08/17 01:25:53;;;;;;;19.65;16.40;;;538.50;2406.40;;;;;;4954029;29;20088;-81
2023/08/17 01:28:19;;;;;;;20.55;17.10;;;538.30;2406.40;;;;;;4953575;29;20033;-83
2023/08/17 01:31:05;;;;;;;18.00;16.13;;;538.30;2406.40;;;;;;4953964;29;20028;-83
2023/08/17 01:33:43;;;;;;;17.60;14.85;;;538.50;2406.40;;;;;;4954121;29;20082;-82
2023/08/17 01:36:29;;;;;;;17.02;15.43;;;563.30;2432.00;;;;;;4954116;29;20049;-83
2023/08/17 01:38:57;;;;;;;19.55;16.88;;;563.30;2432.00;;;;;;4953339;29;20031;-83
2023/08/17 01:41:23;;;;;;;19.50;17.10;;;563.40;2432.00;;;;;;4953848;29;20027;-83
2023/08/17 01:43:50;;;;;;;20.15;18.13;;;563.40;2432.00;;;;;;4953791;29;20038;-82
2023/08/17 01:46:17;;;;;;;18.02;16.27;;;563.40;2432.00;;;;;;4953811;29;20043;-82
2023/08/17 01:48:44;;;;;;;18.58;16.67;;;563.40;2432.00;;;;;;4953662;29;20082;-83
2023/08/17 01:51:21;;;;;;;21.92;19.60;;;563.40;2432.00;;;;;;4953618;29;20466;-82
2023/08/17 01:53:47;;;;;;;19.60;17.10;;;563.40;2432.00;;;;;;4953884;29;20074;-82
2023/08/17 01:56:13;;;;;;;21.27;17.65;;;563.30;2432.00;;;;;;4953552;29;20031;-82
2023/08/17 01:58:39;;;;;;;22.05;18.80;;;563.20;2432.00;;;;;;4953933;29;20364;-83
2023/08/17 02:01:05;;;;;;;19.80;17.83;;;538.50;2406.40;;;;;;4953798;29;20035;-82
2023/08/17 02:03:31;;;;;;;20.08;18.02;;;563.20;2432.00;;;;;;4954853;28;20028;-83
2023/08/17 02:05:58;;;;;;;19.55;17.55;;;563.20;2432.00;;;;;;4954181;29;20086;-83
2023/08/17 02:08:23;;;;;;;19.23;17.15;;;563.30;2432.00;;;;;;4953748;29;20426;-84
2023/08/17 02:10:49;;;;;;;19.02;17.05;;;563.40;2432.00;;;;;;4953460;29;20027;-82
2023/08/17 02:13:16;;;;;;;19.60;17.70;;;563.40;2432.00;;;;;;4953657;29;20031;-83
2023/08/17 02:15:42;;;;;;;18.67;16.63;;;563.40;2432.00;;;;;;4954794;28;20477;-83
2023/08/17 02:18:08;;;;;;;18.83;16.75;;;563.50;2432.00;;;;;;4953485;29;20035;-84
2023/08/17 02:20:34;;;;;;;20.02;17.95;;;563.40;2432.00;;;;;;4954999;28;20031;-83
2023/08/17 02:23:01;;;;;;;18.90;16.83;;;563.40;2432.00;;;;;;4953516;29;20031;-83
2023/08/17 02:25:33;;;;;;;23.02;18.45;;;563.50;2432.00;;;;;;4953518;29;20059;-83
2023/08/17 02:28:00;;;;;;;20.38;18.42;;;563.40;2432.00;;;;;;4953503;29;20392;-82
2023/08/17 02:30:25;;;;;;;20.63;18.02;;;563.50;2432.00;;;;;;4953543;29;20043;-84
2023/08/17 02:32:51;;;;;;;20.45;18.27;;;563.50;2432.00;;;;;;4953430;29;20028;-83
2023/08/17 02:35:17;;;;;;;20.23;18.33;;;563.50;2432.00;;;;;;4956592;29;20134;-82
2023/08/17 02:37:43;;;;;;;20.52;18.27;;;563.60;2432.00;;;;;;4953736;29;20094;-83
2023/08/17 02:40:09;;;;;;;19.90;17.80;;;563.70;2432.00;;;;;;4953244;29;20078;-84
2023/08/17 02:42:35;;;;;;;21.80;19.77;;;563.80;2432.00;;;;;;4953402;29;20050;-84
2023/08/17 02:45:01;;;;;;;24.02;20.05;;;563.60;2432.00;;;;;;4953554;29;20086;-83
2023/08/17 02:47:27;;;;;;;22.63;20.38;;;563.50;2432.00;;;;;;4953251;29;20071;-81
2023/08/17 02:49:52;;;;;;;22.30;19.60;;;563.50;2432.00;;;;;;4955377;28;20054;-83
2023/08/17 02:52:18;;;;;;;25.58;21.10;;;563.60;2432.00;;;;;;4953143;29;20058;-83
2023/08/17 02:54:44;;;;;;;21.13;19.13;;;563.70;2432.00;;;;;;4937495;29;20034;-84
2023/08/17 02:57:10;;;;;;;25.40;19.92;;;563.70;2432.00;;;;;;4937508;29;20036;-84
2023/08/17 02:59:35;;;;;;;21.95;19.63;;;563.60;2432.00;;;;;;4937472;29;20083;-82
2023/08/17 03:02:01;;;;;;;20.85;18.65;;;563.60;2432.00;;;;;;4937560;29;20035;-83
2023/08/17 03:04:27;;;;;;;21.20;19.05;;;563.40;2432.00;;;;;;4938483;29;20024;-84
2023/08/17 03:06:53;;;;;;;23.15;19.67;;;563.20;2432.00;;;;;;4937198;29;20432;-83
2023/08/17 03:09:18;;;;;;;27.42;20.65;;;538.50;2406.40;;;;;;4937287;29;20032;-84
2023/08/17 03:11:44;;;;;;;22.30;19.83;;;538.50;2406.40;;;;;;4937561;29;20079;-83
2023/08/17 03:14:10;;;;;;;22.00;19.90;;;538.50;2406.40;;;;;;4937082;29;20031;-83
2023/08/17 03:16:36;;;;;;;22.92;20.52;;;538.50;2406.40;;;;;;4937444;29;20031;-84
2023/08/17 03:19:03;;;;;;;24.50;21.33;;;538.40;2406.40;;;;;;4937549;29;20036;-84
2023/08/17 03:21:28;;;;;;;24.20;21.77;;;538.40;2406.40;;;;;;4938249;29;20028;-83
2023/08/17 03:23:54;;;;;;;25.75;22.65;;;538.40;2406.40;;;;;;4940993;29;20445;-84
2023/08/17 03:26:20;;;;;;;25.45;22.80;;;538.40;2406.40;;;;;;4940121;29;20064;-84
2023/08/17 03:28:46;;;;;;;28.13;22.58;;;538.50;2406.40;;;;;;4937922;29;20115;-83
2023/08/17 03:31:11;;;;;;;23.45;21.05;;;538.50;2406.40;;;;;;4936915;29;20036;-84
2023/08/17 03:33:37;;;;;;;25.02;21.30;;;538.50;2406.40;;;;;;4936880;29;20114;-84
2023/08/17 03:36:03;;;;;;;22.67;20.45;;;538.50;2406.40;;;;;;4937602;29;20035;-83
2023/08/17 03:38:29;;;;;;;23.17;20.98;;;538.50;2406.40;;;;;;4936810;29;20035;-84
2023/08/17 03:40:55;;;;;;;28.27;23.85;;;563.20;2432.00;;;;;;4936491;29;20046;-83
2023/08/17 03:43:21;;;;;;;25.55;22.85;;;538.50;2406.40;;;;;;4937782;29;20071;-83
2023/08/17 03:45:47;;;;;;;31.83;25.92;;;538.50;2406.40;;;;;;4936626;29;20082;-84
2023/08/17 03:48:12;;;;;;;26.70;24.05;;;538.50;2406.40;;;;;;4936242;29;20099;-83
2023/08/17 03:50:38;;;;;;;25.95;21.80;;;538.50;2406.40;;;;;;4936553;29;20467;-83
2023/08/17 03:53:04;;;;;;;26.90;24.08;;;538.50;2406.40;;;;;;4936510;29;20023;-83
2023/08/17 03:55:30;;;;;;;26.08;23.27;;;538.50;2406.40;;;;;;4936334;29;20114;-84
2023/08/17 03:57:56;;;;;;;27.10;23.58;;;538.50;2406.40;;;;;;4936715;29;20028;-83
2023/08/17 04:00:22;;;;;;;25.90;23.17;;;538.50;2406.40;;;;;;4936475;29;20027;-83
2023/08/17 04:02:47;;;;;;;24.35;21.75;;;538.50;2406.40;;;;;;4935802;29;20114;-84
2023/08/17 04:05:13;;;;;;;26.95;23.20;;;563.20;2432.00;;;;;;4936278;29;20031;-84
2023/08/17 04:07:39;;;;;;;26.00;23.52;;;563.30;2432.00;;;;;;4936181;29;20387;-83
2023/08/17 04:10:08;;;;;;;27.10;24.38;;;563.30;2432.00;;;;;;4936047;29;20036;-83
2023/08/17 04:12:34;;;;;;;29.05;25.98;;;563.20;2432.00;;;;;;4936298;29;20027;-84
2023/08/17 04:15:00;;;;;;;29.23;26.08;;;563.20;2432.00;;;;;;4936358;29;20099;-83
2023/08/17 04:17:26;;;;;;;26.35;23.70;;;538.50;2406.40;;;;;;4937123;29;20028;-83
2023/08/17 04:19:52;;;;;;;27.13;24.33;;;538.50;2406.40;;;;;;4938148;29;20114;-84
2023/08/17 04:22:18;;;;;;;25.35;22.75;;;538.50;2406.40;;;;;;4935810;29;20460;-83
2023/08/17 04:24:44;;;;;;;27.25;23.33;;;538.20;2406.40;;;;;;4936039;29;20036;-82
2023/08/17 04:27:09;;;;;;;27.10;24.45;;;538.20;2406.40;;;;;;4937104;29;20043;-83
2023/08/17 04:29:37;;;;;;;26.95;24.35;;;538.20;2406.40;;;;;;4937382;29;20055;-83
2023/08/17 04:32:03;;;;;;;27.13;24.23;;;538.40;2406.40;;;;;;4935585;29;20031;-83
2023/08/17 04:34:29;;;;;;;27.63;24.65;;;538.40;2406.40;;;;;;4937022;29;20027;-83
2023/08/17 04:36:55;;;;;;;29.05;26.05;;;538.10;2406.40;;;;;;4935535;29;20126;-84
2023/08/17 04:39:21;;;;;;;28.25;25.02;;;538.10;2406.40;;;;;;4935536;29;20139;-83
2023/08/17 04:41:47;;;;;;;29.55;25.55;;;537.90;2406.40;;;;;;4936913;29;20036;-84
2023/08/17 04:44:13;;;;;;;29.42;26.42;;;537.80;2406.40;;;;;;4936761;29;20110;-81
2023/08/17 04:46:39;;;;;;;34.22;28.48;;;537.70;2406.40;;;;;;4935451;29;20159;-83
2023/08/17 04:49:05;;;;;;;32.35;27.30;;;537.80;2406.40;;;;;;4935377;29;20031;-84
2023/08/17 04:51:31;;;;;;;29.23;26.23;;;537.90;2406.40;;;;;;4934800;29;20052;-83
2023/08/17 04:53:57;;;;;;;29.50;26.42;;;538.00;2406.40;;;;;;4935410;29;20050;-83
2023/08/17 04:56:22;;;;;;;27.33;23.65;;;538.00;2406.40;;;;;;4935393;29;20491;-83
2023/08/17 04:58:48;;;;;;;28.77;24.23;;;538.00;2406.40;;;;;;4935267;29;20102;-83
2023/08/17 05:01:14;;;;;;;30.33;27.45;;;538.00;2406.40;;;;;;4935228;29;20034;-82
2023/08/17 05:03:40;;;;;;;29.52;26.33;;;538.10;2406.40;;;;;;4935295;29;20035;-83
2023/08/17 05:06:06;;;;;;;31.30;24.73;;;538.00;2406.40;;;;;;4935081;29;20036;-84
2023/08/17 05:08:31;;;;;;;28.45;25.55;;;538.00;2406.40;;;;;;4934784;29;20028;-81
2023/08/17 05:10:57;;;;;;;29.00;25.90;;;538.10;2406.40;;;;;;4935015;29;20027;-85
2023/08/17 05:13:23;;;;;;;30.90;24.95;;;538.20;2406.40;;;;;;4934085;29;20035;-83
2023/08/17 05:15:49;;;;;;;26.77;24.08;;;538.30;2406.40;;;;;;4936218;29;20496;-84
2023/08/17 05:18:15;;;;;;;31.95;25.35;;;538.40;2406.40;;;;;;4935189;29;20039;-83
2023/08/17 05:20:41;;;;;;;27.38;24.27;;;538.50;2406.40;;;;;;4934791;29;20111;-83
2023/08/17 05:23:07;;;;;;;29.80;26.70;;;538.50;2406.40;;;;;;4934861;29;20032;-82
2023/08/17 05:25:33;;;;;;;32.70;29.25;;;538.40;2406.40;;;;;;4935005;29;20024;-84
2023/08/17 05:27:59;;;;;;;31.98;27.25;;;538.50;2406.40;;;;;;4934775;29;20031;-84
2023/08/17 05:30:25;;;;;;;28.60;25.55;;;538.50;2406.40;;;;;;4936185;29;20086;-83
2023/08/17 05:32:50;;;;;;;31.90;28.30;;;538.50;2406.40;;;;;;4934956;29;20034;-84
2023/08/17 05:35:16;;;;;;;32.95;26.52;;;563.20;2432.00;;;;;;4934636;29;20447;-82
2023/08/17 05:37:42;;;;;;;31.10;27.65;;;563.30;2432.00;;;;;;4934742;29;20031;-84
2023/08/17 05:40:11;;;;;;;31.25;28.00;;;563.30;2432.00;;;;;;4934665;29;20036;-83
2023/08/17 05:42:37;;;;;;;31.55;27.20;;;563.40;2432.00;;;;;;4934718;29;20490;-82
2023/08/17 05:45:03;;;;;;;32.20;29.00;;;563.40;2432.00;;;;;;4934406;29;20051;-83
2023/08/17 05:47:29;;;;;;;30.52;26.88;;;563.40;2432.00;;;;;;4934616;29;20043;-80
2023/08/17 05:49:54;;;;;;;30.15;26.98;;;563.60;2432.00;;;;;;4934709;29;20028;-83
2023/08/17 05:52:20;;;;;;;32.60;29.17;;;563.70;2432.00;;;;;;4935816;29;20564;-84
2023/08/17 05:54:46;;;;;;;30.10;26.95;;;563.60;2432.00;;;;;;4950431;29;20059;-84
2023/08/17 05:57:12;;;;;;;32.10;27.70;;;563.70;2432.00;;;;;;4934499;29;20044;-84
2023/08/17 05:59:38;;;;;;;33.45;29.98;;;563.80;2432.00;;;;;;4934849;29;20031;-84
2023/08/17 06:02:03;;;;;;;31.58;28.25;;;563.90;2432.00;;;;;;4934385;29;20024;-83
2023/08/17 06:04:29;;;;;;;34.95;30.38;;;564.00;2432.00;;;;;;4934660;29;20027;-83
2023/08/17 06:06:55;;;;;;;38.60;30.77;;;564.00;2432.00;;;;;;4934197;29;20403;-84
2023/08/17 06:09:21;;;;;;;38.65;29.15;;;564.00;2432.00;;;;;;4935516;29;20050;-84
2023/08/17 06:11:47;;;;;;;31.73;28.50;;;564.10;2432.00;;;;;;4936026;29;20484;-83
2023/08/17 06:14:12;;;;;;;31.42;28.02;;;588.80;2432.00;;;;;;4935585;29;20031;-82
2023/08/17 06:16:38;;;;;;;35.20;28.77;;;588.80;2432.00;;;;;;4935016;29;20036;-83
2023/08/17 06:19:04;;;;;;;33.05;28.48;;;564.10;2432.00;;;;;;4934425;29;20040;-84
2023/08/17 06:21:30;;;;;;;33.40;28.92;;;588.80;2432.00;;;;;;4934514;29;20032;-84
2023/08/17 06:23:55;;;;;;;35.20;29.20;;;588.90;2432.00;;;;;;4936434;29;20110;-84
2023/08/17 06:26:21;;;;;;;32.70;26.88;;;588.90;2432.00;;;;;;4937956;29;20079;-82
2023/08/17 06:28:47;;;;;;;31.70;26.77;;;589.00;2432.00;;;;;;4938103;29;20038;-83
2023/08/17 06:31:15;;;;;;;34.42;26.60;;;589.20;2432.00;;;;;;4939084;29;20034;-83
2023/08/17 06:33:41;;;;;;;30.45;25.95;;;589.40;2432.00;;;;;;4938103;29;20032;-83
2023/08/17 06:36:06;;;;;;;27.63;24.83;;;589.40;2432.00;;;;;;4937870;29;20032;-83
2023/08/17 06:38:32;;;;;;;29.20;25.88;;;589.70;2432.00;;;;;;4939352;29;20067;-83
2023/08/17 06:40:58;;;;;;;27.40;24.00;;;614.50;2432.00;;;;;;4939185;29;20034;-83
2023/08/17 06:43:24;;;;;;;26.98;24.08;;;614.60;2432.00;;;;;;4938176;29;20035;-82
2023/08/17 06:45:50;;;;;;;27.52;24.90;;;614.60;2432.00;;;;;;4940549;29;20034;-83
2023/08/17 06:48:15;;;;;;;27.52;24.73;;;614.50;2432.00;;;;;;4941138;29;20044;-83
2023/08/17 06:50:41;;;;;;;28.42;24.35;;;614.50;2432.00;;;;;;4938400;29;20129;-81
2023/08/17 06:53:07;;;;;;;27.73;24.90;;;614.60;2432.00;;;;;;4938524;29;20486;-83
2023/08/17 06:55:33;;;;;;;25.88;23.20;;;614.70;2432.00;;;;;;4938344;29;20468;-84
2023/08/17 06:57:59;;;;;;;27.83;24.85;;;614.60;2432.00;;;;;;4947389;29;20035;-83
2023/08/17 07:00:24;;;;;;;30.52;24.80;;;614.70;2432.00;;;;;;4940493;29;20452;-84
2023/08/17 07:02:51;;;;;;;28.50;25.65;;;614.70;2432.00;;;;;;4940489;29;20027;-84
2023/08/17 07:05:18;;;;;;;30.48;26.35;;;614.80;2432.00;;;;;;4940423;29;20408;-82
2023/08/17 07:07:44;;;;;;;28.23;25.15;;;615.00;2432.00;;;;;;4940337;29;20062;-84
2023/08/17 07:10:10;;;;;;;28.15;25.23;;;615.00;2432.00;;;;;;4939665;29;20110;-83
2023/08/17 07:12:37;;;;;;;28.35;25.45;;;614.80;2432.00;;;;;;4940671;29;20058;-84
2023/08/17 07:15:04;;;;;;;29.65;26.75;;;615.20;2432.00;;;;;;4939211;29;20027;-84
2023/08/17 07:17:30;;;;;;;27.52;24.83;;;615.10;2432.00;;;;;;4938007;29;20035;-85
2023/08/17 07:19:56;;;;;;;27.40;24.60;;;614.80;2432.00;;;;;;4937348;29;20491;-83
2023/08/17 07:22:22;;;;;;;27.45;24.58;;;615.10;2432.00;;;;;;4937929;29;20027;-83
2023/08/17 07:24:48;;;;;;;28.05;25.10;;;615.00;2432.00;;;;;;4938734;29;20409;-84
2023/08/17 07:27:13;;;;;;;27.25;24.75;;;615.00;2432.00;;;;;;4938521;29;20091;-83
2023/08/17 07:29:39;;;;;;;27.85;24.95;;;615.00;2432.00;;;;;;4938716;29;20023;-85
2023/08/17 07:32:05;;;;;;;25.73;23.13;;;615.00;2432.00;;;;;;4937904;29;20043;-83
2023/08/17 07:34:31;;;;;;;25.73;23.10;;;615.00;2432.00;;;;;;4950560;29;20027;-82
2023/08/17 07:36:57;;;;;;;27.33;24.55;;;615.00;2432.00;;;;;;4955748;28;20043;-83
2023/08/17 07:39:23;;;;;;;27.08;24.23;;;615.00;2432.00;;;;;;4956613;29;20028;-83
2023/08/17 07:41:49;;;;;;;27.10;24.30;;;615.00;2432.00;;;;;;4956943;29;20027;-84
2023/08/17 07:44:15;;;;;;;27.92;25.13;;;615.00;2432.00;;;;;;4956452;29;20114;-83
2023/08/17 07:46:41;;;;;;;27.75;24.85;;;615.00;2432.00;;;;;;4957499;29;20490;-81
2023/08/17 07:49:07;;;;;;;28.17;25.17;;;615.00;2432.00;;;;;;4958330;29;20031;-83
2023/08/17 07:51:34;;;;;;;30.23;25.25;;;615.10;2432.00;;;;;;4958077;29;20078;-83
2023/08/17 07:54:00;;;;;;;26.92;24.08;;;615.20;2432.00;;;;;;4958389;29;20031;-83
2023/08/17 07:56:26;;;;;;;28.70;25.27;;;615.30;2432.00;;;;;;4958847;29;20039;-84
2023/08/17 07:58:53;;;;;;;27.45;24.75;;;615.20;2432.00;;;;;;4958185;29;20046;-83
2023/08/17 08:01:19;;;;;;;29.13;26.15;;;615.20;2432.00;;;;;;4958021;29;20050;-84
2023/08/17 08:03:45;;;;;;;27.35;24.67;;;615.30;2432.00;;;;;;4957337;29;20546;-83
2023/08/17 08:06:12;;;;;;;28.08;25.17;;;615.30;2432.00;;;;;;4956880;29;20038;-84
2023/08/17 08:08:38;;;;;;;28.38;25.10;;;615.30;2432.00;;;;;;4955869;29;20383;-85
2023/08/17 08:11:04;;;;;;;28.38;23.83;;;615.30;2432.00;;;;;;4956892;29;20031;-84
2023/08/17 08:13:31;;;;;;;29.00;24.92;;;615.30;2432.00;;;;;;4956721;29;20034;-83
2023/08/17 08:15:58;;;;;;;27.15;24.45;;;640.00;2432.00;;;;;;4961290;29;20467;-84
2023/08/17 08:18:25;;;;;;;30.70;24.73;;;615.30;2432.00;;;;;;4957612;29;20102;-83
2023/08/17 08:20:51;;;;;;;27.75;24.80;;;640.00;2432.00;;;;;;4956183;29;20031;-83
2023/08/17 08:23:17;;;;;;;26.75;23.83;;;640.30;2432.00;;;;;;4955092;29;20027;-84
2023/08/17 08:25:43;;;;;;;29.00;24.33;;;640.20;2432.00;;;;;;4956776;29;20037;-85
2023/08/17 08:28:09;;;;;;;28.58;24.50;;;640.30;2432.00;;;;;;4956544;29;20035;-84
2023/08/17 08:30:35;;;;;;;29.95;25.23;;;640.40;2432.00;;;;;;4972268;28;20534;-87
2023/08/17 08:33:02;;;;;;;26.52;23.90;;;640.60;2432.00;;;;;;4956157;29;20030;-83
2023/08/17 08:35:29;;;;;;;27.33;23.27;;;640.40;2432.00;;;;;;4955873;29;20028;-84
2023/08/17 08:37:58;;;;;;;25.50;22.83;;;640.30;2432.00;;;;;;4971961;28;20043;-83
2023/08/17 08:40:29;;;;;;;25.10;22.50;;;640.30;2432.00;;;;;;4957744;29;20027;-84
2023/08/17 08:42:57;;;;;;;27.48;24.42;;;640.30;2432.00;;;;;;4951908;29;20503;-84
2023/08/17 08:45:23;;;;;;;27.27;24.42;;;640.30;2432.00;;;;;;4949293;28;20466;-85
2023/08/17 08:47:50;;;;;;;28.00;25.05;;;640.30;2432.00;;;;;;4956841;28;20031;-85
2023/08/17 08:50:21;;;;;;;26.33;23.52;;;640.40;2432.00;;;;;;4955540;29;20142;-84
2023/08/17 08:53:04;;;;;;;31.83;23.88;;;640.40;2432.00;;;;;;4957188;29;20126;-82
2023/08/17 08:55:34;;;;;;;25.88;23.13;;;640.40;2432.00;;;;;;4958004;28;20026;-85
2023/08/17 08:58:02;;;;;;;27.80;24.65;;;640.50;2432.00;;;;;;4957180;28;20035;-84
2023/08/17 09:00:29;;;;;;;25.80;22.85;;;640.50;2432.00;;;;;;4957243;29;20383;-82
2023/08/17 09:02:56;;;;;;;27.73;24.75;;;640.60;2432.00;;;;;;4953964;29;20549;-84
2023/08/17 09:05:22;;;;;;;27.42;24.02;;;640.70;2432.00;;;;;;4958735;28;20108;-84
2023/08/17 09:07:50;;;;;;;25.38;22.77;;;640.90;2432.00;;;;;;4971553;28;20090;-83
2023/08/17 09:10:18;;;;;;;25.70;22.20;;;640.70;2432.00;;;;;;4957654;28;20031;-83
2023/08/17 09:12:47;;;;;;;24.55;21.38;;;665.60;2432.00;;;;;;4957325;29;20027;-82
2023/08/17 09:15:13;;;;;;;25.38;22.55;;;640.90;2432.00;;;;;;4972850;28;20058;-84
2023/08/17 09:17:38;;;;;;;24.52;22.05;;;640.90;2432.00;;;;;;4955981;29;20467;-84
2023/08/17 09:20:07;;;;;;;25.23;22.60;;;665.70;2432.00;;;;;;4954922;29;20038;-85
2023/08/17 09:22:43;;;;;;;24.55;22.00;;;665.70;2432.00;;;;;;4951070;29;20027;-84
2023/08/17 09:25:10;;;;;;;27.55;24.08;;;666.00;2432.00;;;;;;4947354;29;20027;-85
2023/08/17 09:27:41;;;;;;;24.27;21.60;;;665.90;2432.00;;;;;;4957120;29;20118;-84
2023/08/17 09:30:10;;;;;;;23.48;20.83;;;;;;;;;;4952014;29;20098;-84
2023/08/17 09:32:36;;;;;;;22.67;20.27;;;691.20;2432.00;;;;;;4945762;29;20015;-81
2023/08/17 09:35:05;;;;;;;23.55;21.02;;;691.20;2432.00;;;;;;4945289;29;20134;-82
2023/08/17 09:37:31;;;;;;;22.60;19.83;;;691.30;2432.00;;;;;;4942892;29;20118;-83
2023/08/17 09:39:57;;;;;;;23.58;21.02;;;691.60;2432.00;;;;;;4955114;29;20383;-82
2023/08/17 09:42:25;;;;;;;23.98;19.55;;;716.80;2432.00;;;;;;4956141;29;20029;-82
2023/08/17 09:44:52;;;;;;;21.80;19.65;;;716.90;2432.00;;;;;;4957211;29;20475;-81
2023/08/17 09:47:18;;;;;;;20.75;18.63;;;716.80;2432.00;;;;;;4956584;28;20107;-81
2023/08/17 09:49:52;;;;;;;21.23;18.95;;;716.90;2432.00;;;;;;4971530;28;20031;-78
2023/08/17 09:52:22;;;;;;;24.42;19.45;;;717.10;2432.00;;;;;;4971725;28;20688;-81
2023/08/17 09:54:48;;;;;;;25.27;19.17;;;717.50;2432.00;;;;;;4971729;28;20120;-81
2023/08/17 09:57:14;;;;;;;21.63;19.38;;;742.40;2432.00;;;;;;4959454;29;20672;-82
2023/08/17 09:59:43;;;;;;;23.88;18.73;;;;;;;;;;4961346;28;20043;-82
2023/08/17 10:02:19;;;;;;;20.65;18.40;;;742.80;2432.00;;;;;;4960419;29;20027;-80
2023/08/17 10:04:50;;;;;;;23.15;17.02;;;742.90;2432.00;;;;;;4961032;28;20031;-81
2023/08/17 10:07:17;;;;;;;19.00;16.30;;;;;;;;;;4959251;29;20121;-82
2023/08/17 10:09:46;;;;;;;17.25;15.45;;;;;;;;;;4959725;29;20031;-81
2023/08/17 10:12:15;;;;;;;19.45;17.52;;;;;;;;;;4958856;29;20051;-83
2023/08/17 10:14:46;;;;;;;18.90;16.90;;;;;;;;;;4959666;29;20024;-81
2023/08/17 10:17:15;;;;;;;24.67;17.48;;;;;;;;;;4956522;29;20503;-83
2023/08/17 10:19:51;;;;;;;20.05;17.25;;;;;;;;;;4958386;29;20023;-82
2023/08/17 10:22:20;;;;;;;18.23;16.30;;;;;;;;;;4940287;29;20034;-82
2023/08/17 10:24:47;;;;;;;19.13;15.00;;;;;;;;;;4940002;29;20023;-81
2023/08/17 10:27:13;;;;;;;19.42;14.90;;;;;;;;;;4939000;29;20403;-84
2023/08/17 10:29:42;;;;;;;19.17;16.40;;;;;;;;;;4939440;29;20020;-83
2023/08/17 10:32:08;;;;;;;17.42;15.50;;;;;;;;;;4938935;29;20091;-84
2023/08/17 10:34:35;;;;;;;22.08;17.58;;;;;;;;;;4938958;29;20542;-81
2023/08/17 10:37:02;;;;;;;20.05;17.95;;;;;;;;;;4940313;29;20037;-81
2023/08/17 10:39:29;;;;;;;21.48;18.27;;;;;;;;;;4942105;29;20035;-83
2023/08/17 10:41:55;;;;;;;20.73;18.63;;;;;;;;;;4938544;29;20027;-82
2023/08/17 10:44:41;;;;;;;23.55;19.70;;;;;;;;;;4939414;29;20045;-82
2023/08/17 10:47:19;;;;;;;21.80;19.10;;;;;;;;;;4944465;29;20066;-82
2023/08/17 10:49:46;;;;;;;20.95;18.85;;;;;;;;;;4938279;29;20168;-82
2023/08/17 10:52:12;;;;;;;20.58;18.38;;;;;;;;;;4938147;29;20052;-82
2023/08/17 10:54:42;;;;;;;19.52;17.42;;;;;;;;;;4952859;29;20106;-82
2023/08/17 10:57:27;;;;;;;21.02;17.23;;;;;;;;;;4942352;29;20035;-82
2023/08/17 11:00:07;;;;;;;20.85;18.42;;;;;;;;;;4957617;29;20038;-83
2023/08/17 11:02:34;;;;;;;21.60;19.30;;;768.10;2432.00;;;;;;4957039;29;20057;-81
2023/08/17 11:05:01;;;;;;;25.63;20.15;;;768.10;2432.00;;;;;;4964659;28;20027;-85
2023/08/17 11:07:38;;;;;;;21.63;18.65;;;768.60;2432.00;;;;;;4978900;28;20035;-82
2023/08/17 11:10:11;;;;;;;17.05;14.50;;;;;;;;;;4974582;28;20077;-83
2023/08/17 11:12:36;;;;;;;17.02;15.35;;;793.90;2432.00;;;;;;4974499;29;20019;-84
2023/08/17 11:15:03;;;;;;;48.97;18.80;;;793.90;2432.00;;;;;;4972420;29;20023;-85
2023/08/17 11:17:28;;;;;;;18.23;16.33;;;793.90;2432.00;;;;;;4971730;29;20036;-82
2023/08/17 11:19:54;;;;;;;17.88;16.08;;;768.70;2432.00;;;;;;4975712;29;20054;-82
2023/08/17 11:22:20;;;;;;;18.73;16.92;;;768.50;2432.00;;;;;;4972302;29;20027;-84
2023/08/17 11:24:47;;;;;;;21.30;16.48;;;768.40;2432.00;;;;;;4972599;29;20091;-84
2023/08/17 11:27:14;;;;;;;19.75;16.73;;;768.40;2432.00;;;;;;4971104;29;20126;-82
2023/08/17 11:29:40;;;;;;;21.17;17.00;;;768.50;2432.00;;;;;;4970429;29;20028;-84
2023/08/17 11:32:06;;;;;;;19.85;17.73;;;768.90;2432.00;;;;;;4971680;29;20059;-82
2023/08/17 11:34:32;;;;;;;17.95;15.05;;;794.00;2432.00;;;;;;4972005;29;20023;-84
2023/08/17 11:36:58;;;;;;;18.20;15.13;;;794.10;2432.00;;;;;;4972505;28;20042;-83
2023/08/17 11:39:23;;;;;;;17.38;15.38;;;794.30;2432.00;;;;;;4969001;29;20051;-84
2023/08/17 11:41:51;;;;;;;20.45;16.13;;;794.00;2432.00;;;;;;4970410;29;20027;-83
2023/08/17 11:44:21;;;;;;;21.85;15.43;;;793.70;2432.00;;;;;;4969164;29;20055;-83
2023/08/17 11:46:47;;;;;;;17.92;16.02;;;768.80;2432.00;;;;;;4969766;29;20039;-83
2023/08/17 11:49:13;;;;;;;17.15;14.73;;;768.60;2432.00;;;;;;4972395;29;20051;-83
2023/08/17 11:51:40;;;;;;;14.45;11.40;;;768.40;2432.00;;;;;;4959950;29;20047;-83
2023/08/17 11:54:07;;;;;;;16.38;12.80;;;768.10;2432.00;;;;;;4959109;29;20042;-82
2023/08/17 11:56:34;;;;;;;15.02;13.27;;;768.10;2432.00;;;;;;4963210;29;20120;-83
2023/08/17 11:59:11;;;;;;;15.85;11.60;;;793.70;2432.00;;;;;;4962710;29;20059;-83
2023/08/17 12:01:37;;;;;;;12.02;10.15;;;794.00;2432.00;;;;;;4963844;28;20106;-83
2023/08/17 12:04:05;;;;;;;13.05;11.77;;;794.40;2432.00;;;;;;4963535;29;20027;-84
2023/08/17 12:06:31;;;;;;;13.05;11.57;;;794.20;2432.00;;;;;;4959400;29;20028;-83
2023/08/17 12:08:57;;;;;;;19.98;11.57;;;794.00;2432.00;;;;;;4957562;29;20122;-83